createdAt,value
2022-10-31T00:01:16.352Z,79.98
2022-10-31T00:03:43.089Z,79.70
2022-10-31T00:06:10.336Z,79.71
2022-10-31T00:08:37.446Z,79.93
2022-10-31T00:11:04.285Z,79.84
2022-10-31T00:13:31.015Z,79.64
2022-10-31T00:15:57.698Z,79.37
2022-10-31T00:18:24.415Z,79.43
2022-10-31T00:20:59.838Z,79.27
2022-10-31T00:23:26.676Z,79.50
2022-10-31T00:25:53.372Z,79.82
2022-10-31T00:30:51.596Z,80.42
2022-10-31T00:33:18.329Z,80.67
2022-10-31T00:35:51.577Z,80.41
2022-10-31T00:38:18.289Z,80.48
2022-10-31T00:40:44.937Z,80.32
2022-10-31T00:45:44.250Z,79.93
2022-10-31T00:48:11.270Z,79.64
2022-10-31T00:50:38.367Z,79.28
2022-10-31T00:53:05.139Z,79.55
2022-10-31T00:55:31.834Z,79.99
2022-10-31T00:57:59.144Z,80.46
2022-10-31T01:00:26.841Z,80.40
2022-10-31T01:02:53.568Z,80.94
2022-10-31T01:05:20.449Z,80.61
2022-10-31T01:07:47.442Z,81.09
2022-10-31T01:10:14.793Z,80.96
2022-10-31T01:12:44.896Z,80.85
2022-10-31T01:15:14.351Z,80.44
2022-10-31T01:17:41.940Z,79.89
2022-10-31T01:20:13.312Z,79.57
2022-10-31T01:22:40.076Z,79.46
2022-10-31T01:25:08.328Z,79.26
2022-10-31T01:27:35.135Z,79.25
2022-10-31T01:30:02.237Z,79.24
2022-10-31T01:32:30.535Z,79.27
2022-10-31T01:34:58.791Z,79.59
2022-10-31T01:37:25.561Z,79.81
2022-10-31T01:39:52.278Z,80.07
2022-10-31T01:42:22.240Z,80.33
2022-10-31T01:44:54.257Z,80.47
2022-10-31T01:47:40.585Z,80.51
2022-10-31T01:50:16.365Z,80.76
2022-10-31T01:52:48.959Z,80.73
2022-10-31T01:55:26.445Z,81.14
2022-10-31T01:58:00.395Z,81.34
2022-10-31T02:00:27.576Z,81.45
2022-10-31T02:02:57.433Z,81.68
2022-10-31T02:05:28.330Z,81.80
2022-10-31T02:08:15.263Z,81.90
2022-10-31T02:10:44.167Z,82.10
2022-10-31T02:13:13.975Z,82.47
2022-10-31T02:15:50.990Z,82.95
2022-10-31T02:18:19.677Z,83.00
2022-10-31T02:20:59.739Z,83.18
2022-10-31T02:23:34.939Z,83.21
2022-10-31T02:26:34.788Z,82.98
2022-10-31T02:29:20.281Z,82.87
2022-10-31T02:31:46.971Z,82.67
2022-10-31T02:34:35.629Z,82.79
2022-10-31T02:37:14.634Z,83.08
2022-10-31T02:39:56.525Z,82.59
2022-10-31T02:42:39.690Z,82.96
2022-10-31T02:45:15.638Z,82.82
2022-10-31T02:47:42.922Z,82.74
2022-10-31T02:50:20.705Z,82.90
2022-10-31T02:52:52.936Z,82.94
2022-10-31T02:55:27.159Z,83.10
2022-10-31T02:58:04.086Z,82.91
2022-10-31T03:00:37.960Z,82.59
2022-10-31T03:03:10.220Z,82.16
2022-10-31T03:05:59.508Z,81.74
2022-10-31T03:08:36.621Z,80.95
2022-10-31T03:11:08.146Z,80.70
2022-10-31T03:13:52.144Z,80.74
2022-10-31T03:16:41.478Z,80.89
2022-10-31T03:19:15.709Z,80.92
2022-10-31T03:21:47.928Z,80.71
2022-10-31T03:24:17.288Z,80.53
2022-10-31T03:26:48.694Z,80.24
2022-10-31T03:29:18.967Z,80.57
2022-10-31T03:31:51.838Z,80.30
2022-10-31T03:34:20.947Z,80.41
2022-10-31T03:36:50.869Z,80.10
2022-10-31T03:39:21.832Z,80.58
2022-10-31T03:41:58.270Z,80.07
2022-10-31T03:44:30.654Z,80.06
2022-10-31T03:47:01.595Z,79.87
2022-10-31T03:49:29.223Z,79.87
2022-10-31T03:52:08.641Z,80.10
2022-10-31T03:54:43.120Z,80.12
2022-10-31T03:57:20.519Z,80.13
2022-10-31T03:59:54.289Z,79.97
2022-10-31T04:02:27.091Z,79.85
2022-10-31T04:04:54.360Z,79.42
2022-10-31T04:07:24.653Z,79.80
2022-10-31T04:09:53.033Z,79.52
2022-10-31T04:12:24.138Z,79.43
2022-10-31T04:15:05.673Z,79.67
2022-10-31T04:17:39.203Z,80.04
2022-10-31T04:20:06.928Z,80.09
2022-10-31T04:22:34.220Z,79.64
2022-10-31T04:25:00.874Z,79.82
2022-10-31T04:27:28.326Z,79.81
2022-10-31T04:29:55.085Z,79.25
2022-10-31T04:32:21.870Z,79.36
2022-10-31T04:34:48.749Z,79.64
2022-10-31T04:37:15.460Z,79.83
2022-10-31T04:39:42.631Z,79.88
2022-10-31T04:42:24.703Z,80.02
2022-10-31T04:44:51.947Z,80.60
2022-10-31T04:47:18.997Z,80.57
2022-10-31T04:49:45.751Z,80.31
2022-10-31T04:52:12.769Z,80.51
2022-10-31T04:54:40.404Z,80.50
2022-10-31T04:57:22.895Z,80.57
2022-10-31T04:59:49.913Z,80.56
2022-10-31T05:02:16.671Z,80.97
2022-10-31T05:04:50.920Z,81.64
2022-10-31T05:07:18.197Z,81.60
2022-10-31T05:09:44.886Z,82.40
2022-10-31T05:12:12.888Z,83.29
2022-10-31T05:14:59.690Z,83.31
2022-10-31T05:17:46.939Z,82.99
2022-10-31T05:20:15.664Z,83.23
2022-10-31T05:23:02.482Z,82.43
2022-10-31T05:25:30.008Z,83.03
2022-10-31T05:27:58.109Z,84.32
2022-10-31T05:30:28.517Z,84.56
2022-10-31T05:32:55.650Z,85.11
2022-10-31T05:35:42.402Z,85.01
2022-10-31T05:38:24.690Z,84.37
2022-10-31T05:40:54.974Z,84.59
2022-10-31T05:43:22.221Z,84.88
2022-10-31T05:45:53.767Z,85.41
2022-10-31T05:48:40.538Z,85.53
2022-10-31T05:51:27.154Z,85.49
2022-10-31T05:53:53.928Z,85.58
2022-10-31T05:56:21.190Z,85.31
2022-10-31T05:58:47.945Z,85.05
2022-10-31T06:01:14.844Z,85.18
2022-10-31T06:03:41.762Z,84.72
2022-10-31T06:06:09.900Z,85.23
2022-10-31T06:08:38.558Z,85.45
2022-10-31T06:11:07.794Z,85.61
2022-10-31T06:13:50.211Z,85.83
2022-10-31T06:16:22.151Z,85.08
2022-10-31T06:18:50.156Z,84.92
2022-10-31T06:21:19.005Z,85.24
2022-10-31T06:23:46.290Z,85.56
2022-10-31T06:26:28.494Z,86.48
2022-10-31T06:28:56.872Z,86.30
2022-10-31T06:31:44.971Z,85.88
2022-10-31T06:34:11.719Z,85.34
2022-10-31T06:36:38.427Z,85.06
2022-10-31T06:39:06.114Z,85.37
2022-10-31T06:41:32.954Z,86.00
2022-10-31T06:44:03.459Z,86.57
2022-10-31T06:46:48.768Z,86.13
2022-10-31T06:49:31.027Z,84.87
2022-10-31T06:52:01.950Z,82.64
2022-10-31T06:54:29.793Z,81.79
2022-10-31T06:56:56.898Z,81.19
2022-10-31T06:59:25.144Z,80.14
2022-10-31T07:02:11.554Z,80.51
2022-10-31T07:04:39.477Z,79.71
2022-10-31T07:07:06.282Z,78.06
2022-10-31T07:09:33.222Z,76.43
2022-10-31T07:12:02.383Z,75.21
2022-10-31T07:14:29.854Z,73.31
2022-10-31T07:16:56.657Z,71.88
2022-10-31T07:19:27.186Z,70.25
2022-10-31T07:21:54.285Z,69.01
2022-10-31T07:24:20.980Z,67.82
2022-10-31T07:27:03.521Z,66.54
2022-10-31T07:29:30.372Z,65.43
2022-10-31T07:31:57.210Z,65.03
2022-10-31T07:34:26.150Z,64.34
2022-10-31T07:37:08.591Z,63.74
2022-10-31T07:39:36.517Z,62.85
2022-10-31T07:42:03.333Z,61.96
2022-10-31T07:44:31.302Z,61.10
2022-10-31T07:47:13.708Z,60.90
2022-10-31T07:49:56.039Z,60.56
2022-10-31T07:52:38.726Z,60.54
2022-10-31T07:55:21.032Z,60.17
2022-10-31T07:57:57.037Z,59.48
2022-10-31T08:00:23.921Z,58.54
2022-10-31T08:02:59.207Z,57.73
2022-10-31T08:05:42.252Z,57.20
2022-10-31T08:08:25.177Z,56.18
2022-10-31T08:10:51.862Z,54.85
2022-10-31T08:13:18.589Z,54.09
2022-10-31T08:15:51.154Z,52.55
2022-10-31T08:18:18.687Z,52.33
2022-10-31T08:20:45.821Z,51.82
2022-10-31T08:23:14.485Z,50.41
2022-10-31T08:25:42.993Z,49.58
2022-10-31T08:28:12.500Z,48.83
2022-10-31T08:30:41.046Z,47.94
2022-10-31T08:33:23.084Z,47.16
2022-10-31T08:36:06.138Z,46.99
2022-10-31T08:38:51.678Z,47.02
2022-10-31T08:41:18.621Z,45.55
2022-10-31T08:43:45.830Z,44.95
2022-10-31T08:46:13.021Z,44.27
2022-10-31T08:48:40.511Z,44.20
2022-10-31T08:51:07.904Z,44.03
2022-10-31T08:53:34.590Z,44.67
2022-10-31T08:56:21.488Z,45.06
2022-10-31T08:58:48.194Z,44.73
2022-10-31T09:01:15.634Z,45.06
2022-10-31T09:03:43.376Z,45.50
2022-10-31T09:06:11.022Z,45.55
2022-10-31T09:08:38.114Z,45.98
2022-10-31T09:11:05.579Z,46.26
2022-10-31T09:13:53.839Z,46.69
2022-10-31T09:16:35.752Z,47.51
2022-10-31T09:19:05.212Z,48.56
2022-10-31T09:21:35.596Z,48.34
2022-10-31T09:24:02.482Z,48.87
2022-10-31T09:26:29.185Z,48.02
2022-10-31T09:29:04.592Z,47.71
2022-10-31T09:31:31.526Z,48.36
2022-10-31T09:34:03.951Z,49.18
2022-10-31T09:36:34.052Z,49.69
2022-10-31T09:39:16.379Z,49.18
2022-10-31T09:42:04.516Z,49.33
2022-10-31T09:44:54.436Z,50.40
2022-10-31T09:47:26.752Z,48.84
2022-10-31T09:50:20.745Z,49.37
2022-10-31T09:52:58.492Z,49.07
2022-10-31T09:55:38.431Z,49.19
2022-10-31T09:58:06.684Z,50.14
2022-10-31T10:00:34.435Z,50.84
2022-10-31T10:03:20.012Z,49.58
2022-10-31T10:05:54.792Z,50.36
2022-10-31T10:08:33.131Z,50.09
2022-10-31T10:11:50.526Z,50.86
2022-10-31T10:14:18.482Z,51.00
2022-10-31T10:17:13.526Z,51.06
2022-10-31T10:19:49.684Z,51.98
2022-10-31T10:22:38.722Z,51.32
2022-10-31T10:25:17.926Z,50.38
2022-10-31T10:28:01.183Z,51.33
2022-10-31T10:30:42.858Z,49.98
2022-10-31T10:33:14.451Z,49.22
2022-10-31T10:35:50.219Z,49.49
2022-10-31T10:38:20.511Z,50.46
2022-10-31T10:40:48.127Z,49.91
2022-10-31T10:43:38.495Z,50.30
2022-10-31T10:46:43.503Z,50.11
2022-10-31T10:49:25.600Z,48.92
2022-10-31T10:52:07.457Z,47.86
2022-10-31T10:54:59.237Z,47.93
2022-10-31T10:57:56.617Z,46.63
2022-10-31T11:00:25.023Z,46.24
2022-10-31T11:02:52.684Z,46.44
2022-10-31T11:05:25.760Z,45.18
2022-10-31T11:07:52.754Z,45.32
2022-10-31T11:10:19.678Z,46.23
2022-10-31T11:13:02.002Z,45.62
2022-10-31T11:15:31.972Z,44.81
2022-10-31T11:17:58.824Z,45.28
2022-10-31T11:20:32.402Z,45.11
2022-10-31T11:23:04.199Z,44.64
2022-10-31T11:25:31.925Z,43.65
2022-10-31T11:28:04.497Z,42.20
2022-10-31T11:30:36.916Z,42.61
2022-10-31T11:33:05.170Z,41.91
2022-10-31T11:35:32.321Z,41.04
2022-10-31T11:38:01.500Z,41.36
2022-10-31T11:40:29.100Z,41.39
2022-10-31T11:43:00.165Z,40.73
2022-10-31T11:45:26.838Z,40.96
2022-10-31T11:47:59.974Z,40.32
2022-10-31T11:50:36.211Z,40.52
2022-10-31T11:53:04.416Z,40.02
2022-10-31T11:55:35.926Z,39.44
2022-10-31T11:58:03.864Z,39.55
2022-10-31T12:00:32.404Z,39.63
2022-10-31T12:03:29.822Z,39.30
2022-10-31T12:06:03.940Z,39.66
2022-10-31T12:08:33.708Z,39.50
2022-10-31T12:11:14.649Z,38.18
2022-10-31T12:13:49.397Z,37.56
2022-10-31T12:16:29.782Z,37.35
2022-10-31T12:19:04.010Z,36.86
2022-10-31T12:21:53.461Z,35.64
2022-10-31T12:24:21.697Z,34.33
2022-10-31T12:27:19.240Z,34.04
2022-10-31T12:29:56.643Z,33.37
2022-10-31T12:32:50.698Z,33.24
2022-10-31T12:35:46.238Z,33.17
2022-10-31T12:38:31.867Z,32.72
2022-10-31T12:41:24.913Z,32.77
2022-10-31T12:44:03.881Z,33.10
2022-10-31T12:46:37.912Z,32.85
2022-10-31T12:49:20.963Z,32.92
2022-10-31T12:51:52.023Z,32.11
2022-10-31T12:54:27.428Z,32.02
2022-10-31T12:57:24.516Z,31.58
2022-10-31T12:59:58.935Z,30.66
2022-10-31T13:02:32.192Z,31.07
2022-10-31T13:05:06.209Z,32.24
2022-10-31T13:07:38.723Z,30.58
2022-10-31T13:10:06.541Z,30.39
2022-10-31T13:12:37.427Z,30.57
2022-10-31T13:15:26.147Z,30.16
2022-10-31T13:17:57.680Z,29.75
2022-10-31T13:20:29.817Z,30.41
2022-10-31T13:23:49.011Z,29.57
2022-10-31T13:26:15.632Z,29.00
2022-10-31T13:28:53.565Z,29.54
2022-10-31T13:31:21.779Z,32.76
2022-10-31T13:33:53.699Z,32.12
2022-10-31T13:36:26.289Z,31.66
2022-10-31T13:38:55.086Z,31.17
2022-10-31T13:41:23.000Z,30.45
2022-10-31T13:44:13.047Z,31.02
2022-10-31T13:49:29.587Z,30.37
2022-10-31T13:52:11.596Z,30.13
2022-10-31T13:54:39.612Z,30.21
2022-10-31T13:57:37.639Z,30.68
2022-10-31T14:00:08.786Z,31.28
2022-10-31T14:02:48.901Z,30.92
2022-10-31T14:05:26.823Z,31.40
2022-10-31T14:07:56.409Z,31.31
2022-10-31T14:10:37.427Z,31.58
2022-10-31T14:13:09.693Z,32.45
2022-10-31T14:15:40.564Z,32.99
2022-10-31T14:18:24.775Z,33.23
2022-10-31T14:20:51.550Z,34.09
2022-10-31T14:23:36.184Z,34.42
2022-10-31T14:26:19.668Z,35.57
2022-10-31T14:28:48.082Z,35.96
2022-10-31T14:31:33.171Z,36.36
2022-10-31T14:34:03.016Z,37.22
2022-10-31T14:36:46.525Z,38.15
2022-10-31T14:39:30.560Z,39.97
2022-10-31T14:42:14.020Z,41.16
2022-10-31T14:45:11.637Z,42.32
2022-10-31T14:47:39.407Z,43.40
2022-10-31T14:50:24.541Z,44.69
2022-10-31T14:52:57.434Z,45.64
2022-10-31T14:55:25.591Z,46.98
2022-10-31T14:58:05.304Z,47.94
2022-10-31T15:00:34.917Z,48.97
2022-10-31T15:03:17.086Z,49.84
2022-10-31T15:05:50.392Z,51.13
2022-10-31T15:08:34.081Z,52.34
2022-10-31T15:11:10.216Z,52.90
2022-10-31T15:13:46.718Z,54.02
2022-10-31T15:16:16.398Z,54.80
2022-10-31T15:18:51.008Z,55.49
2022-10-31T15:21:21.443Z,56.73
2022-10-31T15:23:50.855Z,57.57
2022-10-31T15:26:21.301Z,58.86
2022-10-31T15:29:04.693Z,59.36
2022-10-31T15:31:32.239Z,60.22
2022-10-31T15:34:05.213Z,60.95
2022-10-31T15:36:37.358Z,61.59
2022-10-31T15:39:05.572Z,62.18
2022-10-31T15:41:39.850Z,62.72
2022-10-31T15:44:29.098Z,63.23
2022-10-31T15:47:16.875Z,63.70
2022-10-31T15:49:55.514Z,63.95
2022-10-31T15:52:39.965Z,64.25
2022-10-31T15:55:10.350Z,64.67
2022-10-31T15:57:43.544Z,65.38
2022-10-31T16:00:28.501Z,65.79
2022-10-31T16:03:11.751Z,66.21
2022-10-31T16:05:44.856Z,66.87
2022-10-31T16:08:30.847Z,67.93
2022-10-31T16:10:58.439Z,68.32
2022-10-31T16:13:30.118Z,68.30
2022-10-31T16:16:32.949Z,68.52
2022-10-31T16:18:51.970Z,68.99
2022-10-31T16:21:27.426Z,69.06
2022-10-31T16:23:58.391Z,69.50
2022-10-31T16:26:26.266Z,69.85
2022-10-31T16:29:03.261Z,70.18
2022-10-31T16:31:39.666Z,70.28
2022-10-31T16:34:26.255Z,69.99
2022-10-31T16:36:54.040Z,70.37
2022-10-31T16:39:21.425Z,71.60
2022-10-31T16:41:52.804Z,72.22
2022-10-31T16:44:23.755Z,72.40
2022-10-31T16:47:07.022Z,72.34
2022-10-31T16:49:33.905Z,72.57
2022-10-31T16:52:00.573Z,72.32
2022-10-31T16:54:30.182Z,72.58
2022-10-31T16:56:59.818Z,72.87
2022-10-31T16:59:27.730Z,72.63
2022-10-31T17:01:55.908Z,72.96
2022-10-31T17:04:23.036Z,73.18
2022-10-31T17:06:49.773Z,72.55
2022-10-31T17:09:16.536Z,73.50
2022-10-31T17:11:49.768Z,74.23
2022-10-31T17:14:18.003Z,74.29
2022-10-31T17:16:44.762Z,74.37
2022-10-31T17:19:12.910Z,74.13
2022-10-31T17:21:40.829Z,74.34
2022-10-31T17:24:12.706Z,74.80
2022-10-31T17:26:39.411Z,75.40
2022-10-31T17:29:06.226Z,75.94
2022-10-31T17:31:36.360Z,76.33
2022-10-31T17:34:05.295Z,76.06
2022-10-31T17:36:34.450Z,75.62
2022-10-31T17:39:01.560Z,75.55
2022-10-31T17:41:28.223Z,76.54
2022-10-31T17:43:56.235Z,77.56
2022-10-31T17:46:23.148Z,77.16
2022-10-31T17:48:50.000Z,77.31
2022-10-31T17:51:17.162Z,77.54
2022-10-31T17:53:43.874Z,77.61
2022-10-31T17:56:11.229Z,77.40
2022-10-31T17:58:38.342Z,77.55
2022-10-31T18:01:16.383Z,77.70
2022-10-31T18:03:43.881Z,77.43
2022-10-31T18:06:12.132Z,76.91
2022-10-31T18:08:40.590Z,76.79
2022-10-31T18:11:09.785Z,77.16
2022-10-31T18:13:37.664Z,76.59
2022-10-31T18:16:15.587Z,76.51
2022-10-31T18:18:42.434Z,76.79
2022-10-31T18:21:24.621Z,77.19
2022-10-31T18:23:55.981Z,76.97
2022-10-31T18:26:24.349Z,77.29
2022-10-31T18:28:51.811Z,77.46
2022-10-31T18:31:19.159Z,77.55
2022-10-31T18:33:46.455Z,77.45
2022-10-31T18:36:13.328Z,77.45
2022-10-31T18:38:41.745Z,77.97
2022-10-31T18:41:09.287Z,77.79
2022-10-31T18:43:36.021Z,77.71
2022-10-31T18:46:04.835Z,77.81
2022-10-31T18:48:32.048Z,78.17
2022-10-31T18:53:31.630Z,77.80
2022-10-31T18:55:59.205Z,77.43
2022-10-31T18:58:27.274Z,77.36
2022-10-31T19:00:55.559Z,77.21
2022-10-31T19:03:26.177Z,77.59
2022-10-31T19:05:55.933Z,77.72
2022-10-31T19:08:22.873Z,77.42
2022-10-31T19:10:49.641Z,77.19
2022-10-31T19:13:16.352Z,77.15
2022-10-31T19:15:43.584Z,77.44
2022-10-31T19:18:10.366Z,77.56
2022-10-31T19:20:39.417Z,77.61
2022-10-31T19:23:06.880Z,78.12
2022-10-31T19:25:33.650Z,77.92
2022-10-31T19:28:00.759Z,77.42
2022-10-31T19:30:27.756Z,77.34
2022-10-31T19:32:56.474Z,77.45
2022-10-31T19:35:23.134Z,77.41
2022-10-31T19:37:49.804Z,77.44
2022-10-31T19:40:16.688Z,78.05
2022-10-31T19:42:43.382Z,78.87
2022-10-31T19:45:11.151Z,79.93
2022-10-31T19:47:38.101Z,80.49
2022-10-31T19:50:05.143Z,80.45
2022-10-31T19:52:34.720Z,79.94
2022-10-31T19:55:01.661Z,80.00
2022-10-31T19:57:56.276Z,79.53
2022-10-31T20:00:15.528Z,79.29
2022-10-31T20:02:42.181Z,79.16
2022-10-31T20:05:09.291Z,79.35
2022-10-31T20:07:36.129Z,79.19
2022-10-31T20:10:02.903Z,78.91
2022-10-31T20:12:29.645Z,78.96
2022-10-31T20:14:56.363Z,78.81
2022-10-31T20:17:23.079Z,78.55
2022-10-31T20:19:49.899Z,78.59
2022-10-31T20:22:16.781Z,78.66
2022-10-31T20:24:43.596Z,78.80
2022-10-31T20:27:10.297Z,79.58
2022-10-31T20:29:36.967Z,80.42
2022-10-31T20:32:03.893Z,80.66
2022-10-31T20:34:30.855Z,80.58
2022-10-31T20:36:57.656Z,80.72
2022-10-31T20:39:24.730Z,80.45
2022-10-31T20:41:51.482Z,79.89
2022-10-31T20:44:18.174Z,79.38
2022-10-31T20:46:44.985Z,79.19
2022-10-31T20:49:11.665Z,79.15
2022-10-31T20:51:38.628Z,79.15
2022-10-31T20:54:06.868Z,78.91
2022-10-31T20:56:33.674Z,79.15
2022-10-31T20:59:00.436Z,79.18
2022-10-31T21:01:30.264Z,79.63
2022-10-31T21:03:58.733Z,79.87
2022-10-31T21:06:26.068Z,80.18
2022-10-31T21:08:53.849Z,80.15
2022-10-31T21:11:23.133Z,80.90
2022-10-31T21:13:50.789Z,80.91
2022-10-31T21:16:20.939Z,80.58
2022-10-31T21:18:49.399Z,80.68
2022-10-31T21:21:18.184Z,80.35
2022-10-31T21:23:45.825Z,80.21
2022-10-31T21:26:22.740Z,80.62
2022-10-31T21:28:50.692Z,80.35
2022-10-31T21:31:18.545Z,80.47
2022-10-31T21:33:46.291Z,80.68
2022-10-31T21:36:14.326Z,81.26
2022-10-31T21:38:41.599Z,81.89
2022-10-31T21:41:09.761Z,82.48
2022-10-31T21:43:38.324Z,81.97
2022-10-31T21:46:07.602Z,82.37
2022-10-31T21:48:39.091Z,82.43
2022-10-31T21:51:09.047Z,82.84
2022-10-31T21:53:52.196Z,83.33
2022-10-31T21:56:18.918Z,83.40
2022-10-31T21:58:46.067Z,83.34
2022-10-31T22:01:12.903Z,83.56
2022-10-31T22:03:41.283Z,83.17
2022-10-31T22:06:09.944Z,82.51
2022-10-31T22:08:37.008Z,82.01
2022-10-31T22:11:05.494Z,81.69
2022-10-31T22:13:33.915Z,81.14
2022-10-31T22:16:02.228Z,80.51
2022-10-31T22:18:29.185Z,79.83
2022-10-31T22:21:20.065Z,79.75
2022-10-31T22:23:52.106Z,79.88
2022-10-31T22:26:19.497Z,80.27
2022-10-31T22:28:50.355Z,80.85
2022-10-31T22:31:19.055Z,81.20
2022-10-31T22:33:47.183Z,81.53
2022-10-31T22:36:16.956Z,81.89
2022-10-31T22:38:45.170Z,82.04
2022-10-31T22:41:14.203Z,81.80
2022-10-31T22:43:41.509Z,82.18
2022-10-31T22:46:12.495Z,82.39
2022-10-31T22:48:43.187Z,81.85
2022-10-31T22:51:13.638Z,81.82
2022-10-31T22:53:41.015Z,82.30
2022-10-31T22:56:10.121Z,82.03
2022-10-31T22:58:37.145Z,82.36
2022-10-31T23:01:09.221Z,82.21
2022-10-31T23:03:36.871Z,82.22
2022-10-31T23:06:05.541Z,82.33
2022-10-31T23:08:35.356Z,82.22
2022-10-31T23:11:04.414Z,81.76
2022-10-31T23:13:47.250Z,81.50
2022-10-31T23:16:14.057Z,81.03
2022-10-31T23:18:55.737Z,80.40
2022-10-31T23:21:39.864Z,80.30
2022-10-31T23:24:06.709Z,79.89
2022-10-31T23:26:48.938Z,79.85
2022-10-31T23:29:15.684Z,79.63
2022-10-31T23:31:42.392Z,78.91
2022-10-31T23:34:09.482Z,78.64
2022-10-31T23:36:36.178Z,78.76
2022-10-31T23:39:02.952Z,79.03
2022-10-31T23:41:29.702Z,79.12
2022-10-31T23:43:56.646Z,79.29
2022-10-31T23:46:23.338Z,79.17
2022-10-31T23:48:51.009Z,79.17
2022-10-31T23:51:17.799Z,79.42
2022-10-31T23:53:45.727Z,79.39
2022-10-31T23:56:13.774Z,79.29
2022-10-31T23:58:40.982Z,79.53
